createdAt,value
2017-09-25T00:01:27.799Z,102529.84
2017-09-25T00:03:54.430Z,102527.63
2017-09-25T00:06:21.703Z,102531.16
2017-09-25T00:08:48.323Z,102532.03
2017-09-25T00:11:14.931Z,102524.14
2017-09-25T00:13:42.947Z,102520.63
2017-09-25T00:16:09.563Z,102522.80
2017-09-25T00:18:36.942Z,102515.80
2017-09-25T00:21:03.592Z,102515.81
2017-09-25T00:23:30.212Z,102524.13
2017-09-25T00:25:57.302Z,102517.98
2017-09-25T00:28:24.099Z,102515.80
2017-09-25T00:30:51.532Z,102518.01
2017-09-25T00:33:19.837Z,102520.64
2017-09-25T00:35:46.782Z,102515.38
2017-09-25T00:38:13.408Z,102511.85
2017-09-25T00:40:40.145Z,102522.40
2017-09-25T00:43:07.046Z,102514.06
2017-09-25T00:45:33.678Z,102517.59
2017-09-25T00:48:00.401Z,102515.80
2017-09-25T00:50:27.675Z,102518.86
2017-09-25T00:53:14.645Z,102514.04
2017-09-25T00:55:50.693Z,102513.17
2017-09-25T00:58:17.372Z,102518.01
2017-09-25T01:01:03.075Z,102513.61
2017-09-25T01:06:32.086Z,102511.87
2017-09-25T01:08:58.701Z,102514.51
2017-09-25T01:11:25.310Z,102509.67
2017-09-25T01:13:52.406Z,102511.00
2017-09-25T01:16:19.031Z,102508.78
2017-09-25T01:18:45.977Z,102507.03
2017-09-25T01:21:13.015Z,102500.47
2017-09-25T01:23:39.989Z,102495.63
2017-09-25T01:26:06.643Z,102489.94
2017-09-25T01:28:34.497Z,102480.28
2017-09-25T01:31:01.108Z,102476.31
2017-09-25T01:33:27.706Z,102481.16
2017-09-25T01:35:54.646Z,102493.02
2017-09-25T01:38:21.256Z,102492.13
2017-09-25T01:40:48.644Z,102498.29
2017-09-25T01:43:15.908Z,102497.40
2017-09-25T01:45:42.536Z,102500.47
2017-09-25T01:48:09.139Z,102498.29
2017-09-25T01:50:36.074Z,102499.14
2017-09-25T01:53:02.718Z,102500.03
2017-09-25T01:55:29.347Z,102495.19
2017-09-25T01:57:56.472Z,102493.45
2017-09-25T02:00:23.101Z,102496.52
2017-09-25T02:02:49.704Z,102492.14
2017-09-25T02:05:17.539Z,102487.76
2017-09-25T02:07:50.480Z,102487.30
2017-09-25T02:10:17.141Z,102491.27
2017-09-25T02:12:43.784Z,102482.05
2017-09-25T02:15:10.393Z,102477.23
2017-09-25T02:17:37.383Z,102471.97
2017-09-25T02:20:04.007Z,102467.57
2017-09-25T02:22:30.629Z,102468.89
2017-09-25T02:24:57.704Z,102468.00
2017-09-25T02:27:24.327Z,102461.44
2017-09-25T02:29:50.935Z,102465.39
2017-09-25T02:32:17.897Z,102455.74
2017-09-25T02:34:44.823Z,102457.47
2017-09-25T02:37:11.424Z,102455.30
2017-09-25T02:39:39.371Z,102458.38
2017-09-25T02:42:06.004Z,102448.67
2017-09-25T02:44:32.624Z,102449.59
2017-09-25T02:46:59.261Z,102449.11
2017-09-25T02:49:26.339Z,102444.72
2017-09-25T02:51:53.011Z,102437.28
2017-09-25T02:54:19.791Z,102438.19
2017-09-25T02:56:46.760Z,102431.55
2017-09-25T02:59:14.111Z,102432.45
2017-09-25T03:01:47.921Z,102428.07
2017-09-25T03:04:14.538Z,102427.21
2017-09-25T03:06:41.150Z,102422.36
2017-09-25T03:09:07.884Z,102430.70
2017-09-25T03:11:34.820Z,102432.89
2017-09-25T03:14:01.440Z,102433.78
2017-09-25T03:16:29.032Z,102427.64
2017-09-25T03:18:56.027Z,102428.96
2017-09-25T03:21:23.453Z,102429.38
2017-09-25T03:23:50.380Z,102424.13
2017-09-25T03:26:17.468Z,102424.15
2017-09-25T03:28:45.563Z,102437.27
2017-09-25T03:31:12.937Z,102433.77
2017-09-25T03:33:39.999Z,102441.23
2017-09-25T03:36:06.602Z,102446.52
2017-09-25T03:38:33.955Z,102439.94
2017-09-25T03:41:01.696Z,102437.72
2017-09-25T03:43:28.911Z,102441.69
2017-09-25T03:45:55.511Z,102439.92
2017-09-25T03:48:23.564Z,102435.53
2017-09-25T03:50:51.175Z,102434.22
2017-09-25T03:53:17.802Z,102445.20
2017-09-25T03:55:45.272Z,102438.61
2017-09-25T03:58:11.857Z,102435.13
2017-09-25T04:00:38.750Z,102432.47
2017-09-25T04:03:05.738Z,102427.64
2017-09-25T04:05:33.114Z,102432.03
2017-09-25T04:08:00.510Z,102424.58
2017-09-25T04:10:27.139Z,102427.64
2017-09-25T04:12:54.090Z,102426.78
2017-09-25T04:15:20.740Z,102418.89
2017-09-25T04:17:47.366Z,102389.63
2017-09-25T04:20:14.524Z,102421.08
2017-09-25T04:22:41.145Z,102418.88
2017-09-25T04:25:07.759Z,102414.05
2017-09-25T04:27:35.143Z,102413.61
2017-09-25T04:30:02.171Z,102414.05
2017-09-25T04:32:29.137Z,102409.70
2017-09-25T04:34:55.803Z,102412.31
2017-09-25T04:37:23.069Z,102411.89
2017-09-25T04:39:51.187Z,102407.05
2017-09-25T04:42:17.960Z,102413.19
2017-09-25T04:44:45.093Z,102415.82
2017-09-25T04:47:12.034Z,102414.52
2017-09-25T04:49:38.639Z,102425.05
2017-09-25T04:52:06.481Z,102429.45
2017-09-25T04:54:33.824Z,102424.59
2017-09-25T04:57:00.739Z,102424.19
2017-09-25T04:59:27.728Z,102427.67
2017-09-25T05:01:55.810Z,102418.91
2017-09-25T05:04:23.903Z,102422.85
2017-09-25T05:06:51.280Z,102427.24
2017-09-25T05:09:18.431Z,102431.17
2017-09-25T05:11:45.036Z,102426.37
2017-09-25T05:14:12.630Z,102429.44
2017-09-25T05:16:39.578Z,102427.24
2017-09-25T05:19:06.252Z,102427.27
2017-09-25T05:21:32.855Z,102425.48
2017-09-25T05:23:59.843Z,102433.40
2017-09-25T05:26:27.190Z,102432.09
2017-09-25T05:28:53.807Z,102429.01
2017-09-25T05:31:20.740Z,102434.72
2017-09-25T05:33:47.351Z,102440.43
2017-09-25T05:36:14.314Z,102439.09
2017-09-25T05:38:41.415Z,102439.12
2017-09-25T05:41:08.027Z,102438.20
2017-09-25T05:43:34.645Z,102439.52
2017-09-25T05:46:01.629Z,102452.69
2017-09-25T05:48:28.977Z,102452.70
2017-09-25T05:50:55.616Z,102449.64
2017-09-25T05:53:22.671Z,102452.27
2017-09-25T05:55:50.048Z,102457.95
2017-09-25T05:58:17.423Z,102456.66
2017-09-25T06:00:44.523Z,102452.73
2017-09-25T06:03:11.423Z,102447.36
2017-09-25T06:05:38.058Z,102450.70
2017-09-25T06:08:04.688Z,102450.19
2017-09-25T06:10:31.792Z,102439.34
2017-09-25T06:12:58.455Z,102453.93
2017-09-25T06:15:25.851Z,102447.83
2017-09-25T06:17:52.498Z,102443.94
2017-09-25T06:20:19.115Z,102446.59
2017-09-25T06:22:46.286Z,102446.15
2017-09-25T06:25:13.211Z,102449.22
2017-09-25T06:27:39.843Z,102444.84
2017-09-25T06:30:07.101Z,102453.20
2017-09-25T06:32:33.728Z,102432.16
2017-09-25T06:35:00.683Z,102441.69
2017-09-25T06:37:27.773Z,102445.64
2017-09-25T06:39:54.385Z,102438.62
2017-09-25T06:42:21.025Z,102442.11
2017-09-25T06:44:48.099Z,102439.04
2017-09-25T06:47:15.099Z,102444.33
2017-09-25T06:49:41.695Z,102439.08
2017-09-25T06:52:08.991Z,102439.50
2017-09-25T06:54:35.595Z,102440.40
2017-09-25T06:57:03.003Z,102433.38
2017-09-25T06:59:30.388Z,102439.53
2017-09-25T07:01:57.738Z,102440.84
2017-09-25T07:04:25.099Z,102440.41
2017-09-25T07:06:52.855Z,102435.16
2017-09-25T07:09:20.181Z,102437.80
2017-09-25T07:11:46.855Z,102441.75
2017-09-25T07:14:15.321Z,102444.36
2017-09-25T07:16:42.011Z,102443.05
2017-09-25T07:19:08.630Z,102449.65
2017-09-25T07:21:36.425Z,102452.76
2017-09-25T07:24:03.148Z,102450.61
2017-09-25T07:26:29.771Z,102443.53
2017-09-25T07:28:57.517Z,102444.50
2017-09-25T07:31:24.904Z,102452.41
2017-09-25T07:33:51.526Z,102444.11
2017-09-25T07:36:19.269Z,102445.80
2017-09-25T07:38:46.598Z,102436.12
2017-09-25T07:41:13.251Z,102439.57
2017-09-25T07:43:40.163Z,102435.59
2017-09-25T07:46:06.775Z,102440.42
2017-09-25T07:48:34.113Z,102440.41
2017-09-25T07:51:01.958Z,102450.09
2017-09-25T07:53:28.879Z,102450.95
2017-09-25T07:55:55.483Z,102454.45
2017-09-25T07:58:22.406Z,102458.41
2017-09-25T08:00:50.103Z,102457.95
2017-09-25T08:03:17.047Z,102450.52
2017-09-25T08:05:43.935Z,102463.26
2017-09-25T08:08:10.570Z,102450.97
2017-09-25T08:10:37.471Z,102445.28
2017-09-25T08:13:04.728Z,102442.65
2017-09-25T08:15:31.365Z,102447.47
2017-09-25T08:17:58.003Z,102450.13
2017-09-25T08:20:24.993Z,102448.77
2017-09-25T08:22:53.097Z,102454.48
2017-09-25T08:25:20.454Z,102454.49
2017-09-25T08:27:47.726Z,102452.30
2017-09-25T08:30:14.366Z,102453.63
2017-09-25T08:32:40.995Z,102452.29
2017-09-25T08:35:07.993Z,102449.69
2017-09-25T08:37:34.890Z,102454.07
2017-09-25T08:40:01.549Z,102455.80
2017-09-25T08:42:28.203Z,102453.55
2017-09-25T08:44:54.828Z,102455.75
2017-09-25T08:47:21.682Z,102459.69
2017-09-25T08:49:48.297Z,102452.66
2017-09-25T08:52:15.331Z,102457.47
2017-09-25T08:54:42.320Z,102453.52
2017-09-25T08:57:10.423Z,102457.93
2017-09-25T08:59:37.050Z,102454.88
2017-09-25T09:02:04.792Z,102440.39
2017-09-25T09:04:32.413Z,102443.92
2017-09-25T09:06:59.032Z,102441.28
2017-09-25T09:09:26.402Z,102443.91
2017-09-25T09:11:53.835Z,102440.39
2017-09-25T09:14:21.522Z,102436.89
2017-09-25T09:16:48.607Z,102436.03
2017-09-25T09:19:15.215Z,102437.77
2017-09-25T09:21:41.836Z,102436.44
2017-09-25T09:24:08.788Z,102432.51
2017-09-25T09:26:35.735Z,102437.33
2017-09-25T09:29:02.365Z,102429.45
2017-09-25T09:31:29.463Z,102427.24
2017-09-25T09:33:56.362Z,102426.80
2017-09-25T09:36:23.921Z,102422.42
2017-09-25T09:38:50.915Z,102412.77
2017-09-25T09:41:19.061Z,102420.66
2017-09-25T09:43:45.704Z,102412.30
2017-09-25T09:46:12.344Z,102414.08
2017-09-25T09:48:38.975Z,102412.31
2017-09-25T09:51:05.598Z,102410.58
2017-09-25T09:53:32.866Z,102409.23
2017-09-25T09:55:59.511Z,102408.34
2017-09-25T09:58:26.576Z,102404.81
2017-09-25T10:00:53.356Z,102398.67
2017-09-25T10:03:20.034Z,102400.87
2017-09-25T10:05:47.099Z,102397.77
2017-09-25T10:08:13.722Z,102395.75
2017-09-25T10:10:40.640Z,102393.34
2017-09-25T10:13:07.604Z,102392.53
2017-09-25T10:15:34.531Z,102395.33
2017-09-25T10:18:01.475Z,102396.29
2017-09-25T10:20:28.464Z,102392.83
2017-09-25T10:22:55.076Z,102391.98
2017-09-25T10:25:21.666Z,102389.34
2017-09-25T10:27:49.301Z,102388.05
2017-09-25T10:30:16.932Z,102393.34
2017-09-25T10:32:43.559Z,102390.69
2017-09-25T10:35:10.439Z,102394.20
2017-09-25T10:37:37.047Z,102389.83
2017-09-25T10:40:03.976Z,102394.66
2017-09-25T10:42:31.066Z,102393.75
2017-09-25T10:44:57.684Z,102397.70
2017-09-25T10:47:24.296Z,102395.92
2017-09-25T10:49:51.299Z,102392.44
2017-09-25T10:52:17.940Z,102391.07
2017-09-25T10:54:44.829Z,102394.58
2017-09-25T10:57:11.718Z,102388.86
2017-09-25T10:59:39.089Z,102391.08
2017-09-25T11:02:06.523Z,102388.44
2017-09-25T11:04:33.887Z,102391.52
2017-09-25T11:07:01.286Z,102386.70
2017-09-25T11:09:27.899Z,102390.67
2017-09-25T11:11:55.270Z,102376.19
2017-09-25T11:14:22.214Z,102383.22
2017-09-25T11:16:49.178Z,102380.13
2017-09-25T11:19:15.816Z,102374.87
2017-09-25T11:21:42.702Z,102369.59
2017-09-25T11:24:10.799Z,102368.27
2017-09-25T11:26:38.166Z,102363.45
2017-09-25T11:29:06.001Z,102363.89
2017-09-25T11:31:33.371Z,102362.13
2017-09-25T11:34:01.067Z,102358.60
2017-09-25T11:36:28.165Z,102355.97
2017-09-25T11:38:55.512Z,102354.66
2017-09-25T11:41:22.872Z,102356.83
2017-09-25T11:43:49.725Z,102352.89
2017-09-25T11:46:16.392Z,102348.48
2017-09-25T11:48:43.011Z,102343.67
2017-09-25T11:51:10.850Z,102339.73
2017-09-25T11:53:38.240Z,102333.58
2017-09-25T11:56:05.928Z,102334.46
2017-09-25T11:58:32.582Z,102337.54
2017-09-25T12:00:59.866Z,102335.75
2017-09-25T12:03:27.015Z,102328.31
2017-09-25T12:05:54.835Z,102336.19
2017-09-25T12:08:21.443Z,102334.87
2017-09-25T12:10:49.382Z,102337.50
2017-09-25T12:13:17.488Z,102334.84
2017-09-25T12:15:44.863Z,102334.43
2017-09-25T12:18:12.054Z,102332.22
2017-09-25T12:20:38.648Z,102330.92
2017-09-25T12:23:05.259Z,102330.92
2017-09-25T12:25:33.108Z,102326.53
2017-09-25T12:27:59.785Z,102328.72
2017-09-25T12:30:26.404Z,102331.81
2017-09-25T12:32:54.245Z,102322.14
2017-09-25T12:35:21.373Z,102331.55
2017-09-25T12:37:47.983Z,102329.30
2017-09-25T12:40:14.606Z,102323.34
2017-09-25T12:42:41.237Z,102325.24
2017-09-25T12:45:08.644Z,102323.89
2017-09-25T12:47:35.515Z,102325.72
2017-09-25T12:50:02.551Z,102323.10
2017-09-25T12:52:29.164Z,102317.78
2017-09-25T12:54:55.776Z,102322.98
2017-09-25T12:57:22.932Z,102319.06
2017-09-25T12:59:49.544Z,102315.00
2017-09-25T13:02:16.895Z,102322.88
2017-09-25T13:04:44.892Z,102325.14
2017-09-25T13:07:11.553Z,102326.02
2017-09-25T13:09:38.176Z,102317.28
2017-09-25T13:12:05.336Z,102319.47
2017-09-25T13:14:31.960Z,102318.13
2017-09-25T13:16:58.580Z,102311.11
2017-09-25T13:19:25.722Z,102309.37
2017-09-25T13:21:52.584Z,102311.15
2017-09-25T13:24:19.198Z,102305.00
2017-09-25T13:26:47.004Z,102295.79
2017-09-25T13:29:13.633Z,102296.66
2017-09-25T13:31:40.268Z,102294.91
2017-09-25T13:34:07.360Z,102294.88
2017-09-25T13:36:34.353Z,102298.85
2017-09-25T13:39:00.982Z,102299.75
2017-09-25T13:41:28.082Z,102294.91
2017-09-25T13:43:54.704Z,102296.69
2017-09-25T13:46:21.319Z,102292.73
2017-09-25T13:48:48.407Z,102297.57
2017-09-25T13:51:15.038Z,102296.23
2017-09-25T13:53:41.942Z,102295.28
2017-09-25T13:56:08.892Z,102293.47
2017-09-25T14:03:40.167Z,102296.45
2017-09-25T14:06:06.816Z,102293.88
2017-09-25T14:08:33.743Z,102287.74
2017-09-25T14:11:00.696Z,102286.45
2017-09-25T14:13:27.320Z,102280.75
2017-09-25T14:15:54.331Z,102278.56
2017-09-25T14:18:21.048Z,102281.64
2017-09-25T14:20:47.655Z,102281.64
2017-09-25T14:23:14.295Z,102279.44
2017-09-25T14:25:40.920Z,102271.13
2017-09-25T14:28:07.878Z,102274.17
2017-09-25T14:30:34.499Z,102268.50
2017-09-25T14:33:01.147Z,102275.49
2017-09-25T14:35:28.242Z,102276.41
2017-09-25T14:37:54.917Z,102259.37
2017-09-25T14:40:22.284Z,102280.34
2017-09-25T14:42:49.387Z,102282.13
2017-09-25T14:45:16.031Z,102286.92
2017-09-25T14:47:43.642Z,102288.25
2017-09-25T14:50:11.013Z,102290.44
2017-09-25T14:52:37.607Z,102287.81
2017-09-25T14:55:04.971Z,102288.25
2017-09-25T14:57:31.875Z,102282.55
2017-09-25T14:59:59.231Z,102291.31
2017-09-25T15:02:26.593Z,102286.05
2017-09-25T15:04:53.531Z,102299.24
2017-09-25T15:07:20.190Z,102293.52
2017-09-25T15:09:47.888Z,102293.08
2017-09-25T15:12:14.559Z,102284.28
2017-09-25T15:14:41.710Z,102301.80
2017-09-25T15:17:08.324Z,102291.64
2017-09-25T15:19:34.977Z,102286.39
2017-09-25T15:22:01.914Z,102293.41
2017-09-25T15:24:28.839Z,102295.61
2017-09-25T15:26:55.784Z,102296.05
2017-09-25T15:29:22.791Z,102299.98
2017-09-25T15:31:50.163Z,102297.34
2017-09-25T15:34:17.503Z,102294.72
2017-09-25T15:36:45.351Z,102305.72
2017-09-25T15:39:12.761Z,102304.80
2017-09-25T15:41:39.387Z,102305.27
2017-09-25T15:44:06.292Z,102303.95
2017-09-25T15:46:33.641Z,102305.23
2017-09-25T15:49:00.248Z,102308.30
2017-09-25T15:51:27.329Z,102306.41
2017-09-25T15:53:55.429Z,102317.34
2017-09-25T15:56:22.785Z,102308.12
2017-09-25T15:58:50.619Z,102310.26
2017-09-25T16:01:17.417Z,102307.45
2017-09-25T16:03:44.035Z,102304.44
2017-09-25T16:06:11.038Z,102308.50
2017-09-25T16:08:38.053Z,102304.63
2017-09-25T16:11:04.663Z,102305.54
2017-09-25T16:13:31.779Z,102315.22
2017-09-25T16:15:59.147Z,102318.31
2017-09-25T16:18:25.857Z,102317.89
2017-09-25T16:20:52.915Z,102316.14
2017-09-25T16:23:20.325Z,102315.27
2017-09-25T16:25:46.956Z,102313.97
2017-09-25T16:28:14.034Z,102311.79
2017-09-25T16:30:40.665Z,102313.53
2017-09-25T16:33:07.284Z,102320.55
2017-09-25T16:35:34.388Z,102325.83
2017-09-25T16:38:01.284Z,102319.69
2017-09-25T16:40:27.913Z,102325.83
2017-09-25T16:42:55.169Z,102326.19
2017-09-25T16:45:21.804Z,102316.97
2017-09-25T16:47:48.755Z,102321.35
2017-09-25T16:50:15.643Z,102321.36
2017-09-25T16:52:42.263Z,102320.48
2017-09-25T16:55:08.883Z,102327.95
2017-09-25T16:57:36.064Z,102328.87
2017-09-25T17:00:03.443Z,102332.38
2017-09-25T17:02:30.802Z,102334.09
2017-09-25T17:04:58.544Z,102345.95
2017-09-25T17:07:25.456Z,102340.65
2017-09-25T17:09:52.319Z,102342.42
2017-09-25T17:12:19.270Z,102342.45
2017-09-25T17:14:46.635Z,102345.13
2017-09-25T17:17:13.247Z,102346.41
2017-09-25T17:19:40.115Z,102349.03
2017-09-25T17:22:06.726Z,102345.53
2017-09-25T17:24:33.357Z,102346.84
2017-09-25T17:27:00.694Z,102357.40
2017-09-25T17:29:27.310Z,102353.03
2017-09-25T17:31:54.990Z,102355.67
2017-09-25T17:34:22.008Z,102351.72
2017-09-25T17:36:49.409Z,102353.05
2017-09-25T17:39:16.339Z,102356.13
2017-09-25T17:41:43.430Z,102362.73
2017-09-25T17:44:10.058Z,102365.37
2017-09-25T17:46:36.967Z,102371.95
2017-09-25T17:49:04.062Z,102370.66
2017-09-25T17:51:31.423Z,102373.28
2017-09-25T17:53:58.025Z,102367.58
2017-09-25T17:56:25.102Z,102377.26
2017-09-25T17:58:51.708Z,102374.19
2017-09-25T18:01:18.324Z,102376.38
2017-09-25T18:03:45.324Z,102382.52
2017-09-25T18:06:12.704Z,102382.98
2017-09-25T18:08:39.681Z,102383.86
2017-09-25T18:11:06.707Z,102381.67
2017-09-25T18:13:33.339Z,102393.06
2017-09-25T18:16:00.692Z,102385.19
2017-09-25T18:18:27.670Z,102390.89
2017-09-25T18:20:54.270Z,102383.88
2017-09-25T18:23:21.630Z,102395.27
2017-09-25T18:25:49.467Z,102391.33
2017-09-25T18:28:17.084Z,102391.75
2017-09-25T18:30:44.023Z,102396.16
2017-09-25T18:33:11.016Z,102405.39
2017-09-25T18:35:37.633Z,102414.14
2017-09-25T18:38:04.253Z,102413.30
2017-09-25T18:40:38.402Z,102410.23
2017-09-25T18:43:06.551Z,102405.41
2017-09-25T18:45:33.166Z,102410.69
2017-09-25T18:48:00.262Z,102408.91
2017-09-25T18:50:26.891Z,102416.37
2017-09-25T18:52:53.519Z,102416.37
2017-09-25T18:55:20.483Z,102418.59
2017-09-25T18:57:47.115Z,102420.37
2017-09-25T19:00:14.503Z,102420.77
2017-09-25T19:02:42.241Z,102423.41
2017-09-25T19:05:09.605Z,102426.95
2017-09-25T19:07:36.240Z,102426.04
2017-09-25T19:10:04.100Z,102423.42
2017-09-25T19:12:31.101Z,102422.11
2017-09-25T19:14:57.731Z,102423.42
2017-09-25T19:17:24.825Z,102418.59
2017-09-25T19:19:53.268Z,102422.11
2017-09-25T19:22:19.891Z,102426.94
2017-09-25T19:24:47.302Z,102421.66
2017-09-25T19:27:13.929Z,102419.48
2017-09-25T19:29:40.541Z,102422.13
2017-09-25T19:32:07.886Z,102421.69
2017-09-25T19:34:34.545Z,102422.98
2017-09-25T19:37:01.161Z,102420.82
2017-09-25T19:39:28.223Z,102426.09
2017-09-25T19:41:54.845Z,102424.33
2017-09-25T19:44:21.796Z,102423.89
2017-09-25T19:46:48.490Z,102423.89
2017-09-25T19:49:31.192Z,102430.03
2017-09-25T19:51:58.590Z,102431.34
2017-09-25T19:54:43.511Z,102433.98
2017-09-25T19:57:11.660Z,102432.66
2017-09-25T19:59:38.492Z,102437.51
2017-09-25T20:02:05.488Z,102433.58
2017-09-25T20:04:32.847Z,102434.00
2017-09-25T20:07:00.266Z,102435.75
2017-09-25T20:09:27.746Z,102433.11
2017-09-25T20:11:55.148Z,102436.63
2017-09-25T20:14:22.303Z,102430.08
2017-09-25T20:16:51.501Z,102427.88
2017-09-25T20:19:18.135Z,102431.38
2017-09-25T20:21:44.748Z,102430.95
2017-09-25T20:24:12.419Z,102436.64
2017-09-25T20:26:39.045Z,102433.13
2017-09-25T20:29:06.409Z,102437.53
2017-09-25T20:31:33.579Z,102440.17
2017-09-25T20:34:00.529Z,102444.57
2017-09-25T20:36:27.171Z,102440.63
2017-09-25T20:38:54.264Z,102439.30
2017-09-25T20:41:21.256Z,102435.77
2017-09-25T20:43:47.927Z,102441.03
2017-09-25T20:46:14.992Z,102443.23
2017-09-25T20:48:42.359Z,102443.23
2017-09-25T20:51:09.725Z,102432.25
2017-09-25T20:53:37.667Z,102437.10
2017-09-25T20:56:05.284Z,102438.39
2017-09-25T20:58:31.939Z,102430.95
2017-09-25T21:00:59.002Z,102433.58
2017-09-25T21:03:25.623Z,102431.39
2017-09-25T21:05:52.984Z,102438.42
2017-09-25T21:08:20.065Z,102424.44
2017-09-25T21:10:47.429Z,102438.00
2017-09-25T21:13:14.788Z,102436.23
2017-09-25T21:15:42.831Z,102433.63
2017-09-25T21:18:10.179Z,102436.69
2017-09-25T21:20:36.803Z,102436.25
2017-09-25T21:23:03.877Z,102441.95
2017-09-25T21:25:31.271Z,102444.16
2017-09-25T21:27:58.227Z,102448.97
2017-09-25T21:30:25.583Z,102450.30
2017-09-25T21:32:52.207Z,102447.23
2017-09-25T21:35:18.831Z,102448.56
2017-09-25T21:37:46.569Z,102446.38
2017-09-25T21:40:13.926Z,102444.59
2017-09-25T21:42:40.530Z,102430.61
2017-09-25T21:45:07.498Z,102441.95
2017-09-25T21:47:34.402Z,102445.93
2017-09-25T21:50:00.996Z,102445.04
2017-09-25T21:52:28.927Z,102437.56
2017-09-25T21:54:55.542Z,102434.51
2017-09-25T21:57:22.146Z,102435.83
2017-09-25T21:59:49.587Z,102441.09
2017-09-25T22:02:16.480Z,102444.59
2017-09-25T22:04:43.736Z,102442.43
2017-09-25T22:07:10.344Z,102443.28
2017-09-25T22:09:37.718Z,102440.67
2017-09-25T22:12:04.820Z,102445.49
2017-09-25T22:14:33.015Z,102437.15
2017-09-25T22:17:00.834Z,102438.47
2017-09-25T22:19:27.807Z,102442.42
2017-09-25T22:21:55.166Z,102443.29
2017-09-25T22:24:22.876Z,102441.97
2017-09-25T22:26:49.970Z,102441.13
2017-09-25T22:29:18.092Z,102442.44
2017-09-25T22:31:45.437Z,102438.05
2017-09-25T22:34:12.405Z,102433.67
2017-09-25T22:36:39.064Z,102433.22
2017-09-25T22:39:06.149Z,102434.52
2017-09-25T22:41:33.793Z,102430.58
2017-09-25T22:44:01.472Z,102435.41
2017-09-25T22:46:28.895Z,102441.55
2017-09-25T22:48:55.984Z,102440.25
2017-09-25T22:51:23.650Z,102443.76
2017-09-25T22:53:50.537Z,102442.88
2017-09-25T22:56:17.503Z,102443.31
2017-09-25T22:58:44.134Z,102437.61
2017-09-25T23:01:10.819Z,102438.50
2017-09-25T23:03:41.808Z,102439.81
2017-09-25T23:06:08.466Z,102441.58
2017-09-25T23:08:35.357Z,102439.83
2017-09-25T23:11:02.816Z,102440.28
2017-09-25T23:13:29.439Z,102440.27
2017-09-25T23:15:56.186Z,102437.63
2017-09-25T23:18:23.077Z,102437.65
2017-09-25T23:20:49.703Z,102438.05
2017-09-25T23:23:16.761Z,102438.95
2017-09-25T23:25:44.102Z,102437.63
2017-09-25T23:28:10.758Z,102433.70
2017-09-25T23:30:41.958Z,102440.28
2017-09-25T23:33:08.629Z,102438.97
2017-09-25T23:35:35.270Z,102438.95
2017-09-25T23:38:02.321Z,102437.19
2017-09-25T23:40:29.223Z,102442.92
2017-09-25T23:42:55.826Z,102438.08
2017-09-25T23:45:23.761Z,102435.45
2017-09-25T23:47:50.381Z,102429.30
2017-09-25T23:50:17.314Z,102436.77
2017-09-25T23:52:44.397Z,102440.27
2017-09-25T23:55:11.007Z,102437.20
2017-09-25T23:57:37.855Z,102433.27
